Time;durP1;ratioP1;P1;durP2;ratioP2;P2;SDS_P1;SDS_P2;PMS_P1;PMS_P2;Temp;Humidity;BMP_temperature;BMP_pressure;BME280_temperature;BME280_humidity;BME280_pressure;Samples;Min_cycle;Max_cycle;Signal;HPM_P1;HPM_P2
2023/09/20 00:02:13;;;;;;;5.03;1.20;;;25.40;51.80;;;;;;5060002;27;94333;-53
2023/09/20 00:04:42;;;;;;;1.10;0.80;;;25.40;51.80;;;;;;5060468;27;92112;-53
2023/09/20 00:07:12;;;;;;;2.63;1.30;;;25.40;51.80;;;;;;5059385;27;93177;-53
2023/09/20 00:09:40;;;;;;;1.83;0.83;;;25.40;51.80;;;;;;5059966;27;92566;-52
2023/09/20 00:12:09;;;;;;;1.00;0.90;;;25.40;51.80;;;;;;5057721;27;93890;-52
2023/09/20 00:14:37;;;;;;;2.63;1.20;;;25.40;51.80;;;;;;5048815;27;92528;-53
2023/09/20 00:17:06;;;;;;;3.03;1.03;;;25.40;51.80;;;;;;5055336;27;93014;-53
2023/09/20 00:19:38;;;;;;;1.00;0.87;;;25.40;51.80;;;;;;5049170;27;93821;-53
2023/09/20 00:22:10;;;;;;;1.47;1.07;;;25.40;51.80;;;;;;5060116;27;91911;-52
2023/09/20 00:24:40;;;;;;;2.50;1.47;;;25.40;51.80;;;;;;5056326;27;92000;-52
2023/09/20 00:27:09;;;;;;;3.50;1.80;;;25.40;51.80;;;;;;5051315;27;94065;-53
2023/09/20 00:29:37;;;;;;;2.40;1.77;;;25.40;51.80;;;;;;5056892;27;94246;-53
2023/09/20 00:32:07;;;;;;;1.63;1.40;;;25.40;51.80;;;;;;5049151;27;92766;-52
2023/09/20 00:34:35;;;;;;;3.10;1.83;;;25.40;51.80;;;;;;5059957;27;92174;-53
2023/09/20 00:37:04;;;;;;;2.73;1.60;;;25.30;51.70;;;;;;5057656;27;93158;-52
2023/09/20 00:39:32;;;;;;;4.60;1.97;;;25.40;51.80;;;;;;5046983;27;94168;-52
2023/09/20 00:42:01;;;;;;;3.33;1.83;;;25.40;51.80;;;;;;5060310;27;91743;-53
2023/09/20 00:44:29;;;;;;;4.90;2.23;;;25.30;51.70;;;;;;5060054;27;91337;-53
2023/09/20 00:46:58;;;;;;;3.23;1.80;;;25.30;51.70;;;;;;5055258;27;93067;-53
2023/09/20 00:49:26;;;;;;;4.87;2.10;;;25.30;51.70;;;;;;5050972;27;92608;-53
2023/09/20 00:51:55;;;;;;;3.80;2.10;;;25.30;51.70;;;;;;5038453;28;93036;-53
2023/09/20 00:54:23;;;;;;;4.03;2.27;;;25.30;51.70;;;;;;5039061;27;91930;-52
2023/09/20 00:56:51;;;;;;;5.33;2.50;;;25.30;51.70;;;;;;5050839;27;94211;-53
2023/09/20 00:59:21;;;;;;;3.10;2.10;;;25.30;51.70;;;;;;5059817;27;92615;-53
2023/09/20 01:01:50;;;;;;;2.77;1.83;;;25.30;51.70;;;;;;5060719;27;91966;-53
2023/09/20 01:04:18;;;;;;;2.93;2.13;;;25.30;51.70;;;;;;5059707;27;92502;-53
2023/09/20 01:06:46;;;;;;;2.30;1.97;;;25.30;51.70;;;;;;5048070;27;94170;-52
2023/09/20 01:09:14;;;;;;;2.73;1.60;;;25.30;51.70;;;;;;5040022;28;93034;-53
2023/09/20 01:11:42;;;;;;;4.27;2.60;;;25.30;51.70;;;;;;5039347;28;91942;-52
2023/09/20 01:14:11;;;;;;;6.13;2.47;;;25.30;51.70;;;;;;5039625;28;92027;-52
2023/09/20 01:16:41;;;;;;;3.90;2.50;;;25.30;51.70;;;;;;5038988;28;93987;-53
2023/09/20 01:19:09;;;;;;;2.63;1.60;;;25.30;51.70;;;;;;5039104;28;94617;-53
2023/09/20 01:21:40;;;;;;;3.30;2.23;;;25.30;51.70;;;;;;5039247;28;92043;-53
2023/09/20 01:24:09;;;;;;;2.63;1.83;;;25.30;51.70;;;;;;5049360;27;92029;-52
2023/09/20 01:26:38;;;;;;;2.47;1.70;;;25.30;51.70;;;;;;5058546;27;93073;-52
2023/09/20 01:29:06;;;;;;;2.07;1.43;;;25.30;51.70;;;;;;5058665;27;92924;-53
2023/09/20 01:31:36;;;;;;;4.30;2.00;;;25.30;51.70;;;;;;5059763;27;93205;-53
2023/09/20 01:34:04;;;;;;;3.03;1.70;;;25.30;51.70;;;;;;5058604;27;92725;-53
2023/09/20 01:36:32;;;;;;;2.93;1.70;;;25.30;51.70;;;;;;5059182;27;94199;-53
2023/09/20 01:39:02;;;;;;;3.50;1.70;;;25.30;51.70;;;;;;5058873;27;92265;-53
2023/09/20 01:41:30;;;;;;;2.53;1.20;;;25.30;51.70;;;;;;5058569;27;93076;-53
2023/09/20 01:43:58;;;;;;;3.80;1.33;;;25.30;51.70;;;;;;5058903;27;92060;-53
2023/09/20 01:46:27;;;;;;;2.90;1.80;;;25.30;51.60;;;;;;5058317;27;93309;-53
2023/09/20 01:48:55;;;;;;;4.17;1.30;;;25.30;51.60;;;;;;5058481;27;93860;-53
2023/09/20 01:51:23;;;;;;;3.80;1.60;;;25.30;51.70;;;;;;5052561;27;92051;-53
2023/09/20 01:53:51;;;;;;;3.80;1.60;;;25.30;51.70;;;;;;5037378;28;92646;-53
2023/09/20 01:56:21;;;;;;;3.97;1.80;;;25.30;51.60;;;;;;5037828;27;93283;-53
2023/09/20 01:58:50;;;;;;;3.20;1.80;;;25.30;51.60;;;;;;5038913;27;93854;-53
2023/09/20 02:01:18;;;;;;;2.13;1.50;;;25.30;51.70;;;;;;5037827;27;92146;-53
2023/09/20 02:03:48;;;;;;;3.10;1.40;;;25.30;51.70;;;;;;5023115;27;92215;-52
2023/09/20 02:06:17;;;;;;;2.97;1.73;;;25.30;51.70;;;;;;5037515;27;94029;-53
2023/09/20 02:08:45;;;;;;;4.20;1.60;;;25.30;51.70;;;;;;5037242;27;94832;-53
2023/09/20 02:11:15;;;;;;;1.43;1.27;;;25.20;51.60;;;;;;5037908;27;93381;-53
2023/09/20 02:13:44;;;;;;;3.47;1.60;;;25.20;51.70;;;;;;5036156;28;92133;-53
2023/09/20 02:16:12;;;;;;;4.07;1.83;;;25.20;51.60;;;;;;5036534;27;92084;-53
2023/09/20 02:18:40;;;;;;;2.97;1.87;;;25.20;51.60;;;;;;5035218;28;93678;-53
2023/09/20 02:21:09;;;;;;;2.30;1.40;;;25.20;51.60;;;;;;5037096;27;93316;-52
2023/09/20 02:23:37;;;;;;;1.90;1.40;;;25.20;51.60;;;;;;5037148;28;91270;-52
2023/09/20 02:26:05;;;;;;;2.43;1.70;;;25.20;51.70;;;;;;5036656;28;93071;-53
2023/09/20 02:28:34;;;;;;;3.70;1.70;;;25.20;51.70;;;;;;5036840;27;92947;-52
2023/09/20 02:31:03;;;;;;;4.37;1.63;;;25.20;51.70;;;;;;5036831;28;92938;-52
2023/09/20 02:33:31;;;;;;;2.13;1.80;;;25.20;51.70;;;;;;5036219;28;92201;-53
2023/09/20 02:35:59;;;;;;;5.90;2.33;;;25.20;51.70;;;;;;5034926;28;94088;-53
2023/09/20 02:38:28;;;;;;;6.27;2.70;;;25.10;51.60;;;;;;5033439;28;92740;-53
2023/09/20 02:40:57;;;;;;;3.53;2.07;;;25.20;51.70;;;;;;5036891;27;92035;-52
2023/09/20 02:43:26;;;;;;;3.63;2.50;;;25.20;51.70;;;;;;5032997;27;92104;-52
2023/09/20 02:45:54;;;;;;;5.13;3.10;;;25.20;51.70;;;;;;5036553;27;94255;-53
2023/09/20 02:48:24;;;;;;;5.17;2.80;;;25.20;51.70;;;;;;5042742;27;92729;-53
2023/09/20 02:50:52;;;;;;;5.07;2.73;;;25.20;52.40;;;;;;5047331;27;92061;-52
2023/09/20 02:53:20;;;;;;;4.67;3.00;;;25.20;51.70;;;;;;5047139;27;93409;-52
2023/09/20 02:55:48;;;;;;;3.80;2.57;;;25.20;51.70;;;;;;5043520;27;94009;-53
2023/09/20 02:58:17;;;;;;;4.57;2.77;;;25.20;52.40;;;;;;5045103;27;93622;-52
2023/09/20 03:00:50;;;;;;;5.83;3.13;;;25.20;51.70;;;;;;5047444;27;92167;-53
2023/09/20 03:03:19;;;;;;;6.07;3.00;;;25.20;51.70;;;;;;5046089;27;92121;-53
2023/09/20 03:05:49;;;;;;;4.57;2.80;;;25.20;51.70;;;;;;5042602;27;94267;-53
2023/09/20 03:08:17;;;;;;;5.73;2.93;;;25.20;51.70;;;;;;5046436;27;92597;-53
2023/09/20 03:10:46;;;;;;;4.30;3.13;;;25.20;51.70;;;;;;5048092;27;92042;-52
2023/09/20 03:13:16;;;;;;;5.17;2.90;;;25.20;51.70;;;;;;5046572;27;91358;-52
2023/09/20 03:15:45;;;;;;;5.63;2.80;;;25.10;51.70;;;;;;5036506;27;94122;-53
2023/09/20 03:18:14;;;;;;;7.57;3.00;;;25.20;51.70;;;;;;5041197;27;93814;-52
2023/09/20 03:20:44;;;;;;;8.10;3.03;;;25.10;51.70;;;;;;5043871;28;93007;-52
2023/09/20 03:23:14;;;;;;;6.90;3.30;;;25.20;51.80;;;;;;5043520;27;92071;-52
2023/09/20 03:25:42;;;;;;;4.50;2.97;;;25.10;51.70;;;;;;5043838;27;93271;-52
2023/09/20 03:28:10;;;;;;;5.60;3.43;;;25.10;52.30;;;;;;5042906;27;92832;-53
2023/09/20 03:30:39;;;;;;;6.60;3.00;;;25.10;51.70;;;;;;5042991;27;92038;-53
2023/09/20 03:33:08;;;;;;;4.43;3.00;;;25.10;51.70;;;;;;5042986;27;92102;-53
2023/09/20 03:35:38;;;;;;;6.27;3.43;;;25.10;51.70;;;;;;5042135;27;94002;-52
2023/09/20 03:38:06;;;;;;;4.50;3.40;;;25.10;51.70;;;;;;5042343;28;91570;-53
2023/09/20 03:40:37;;;;;;;5.37;3.27;;;25.10;51.70;;;;;;5044237;27;93314;-53
2023/09/20 03:43:07;;;;;;;4.30;2.77;;;25.10;51.70;;;;;;5034482;28;92214;-53
2023/09/20 03:45:35;;;;;;;4.97;3.20;;;25.10;51.70;;;;;;5039338;28;93700;-53
2023/09/20 03:48:05;;;;;;;5.80;1.93;;;25.10;51.70;;;;;;5052905;27;93567;-53
2023/09/20 03:50:33;;;;;;;3.93;3.00;;;25.10;51.70;;;;;;5061200;27;92182;-52
2023/09/20 03:53:02;;;;;;;8.90;2.90;;;25.10;51.70;;;;;;5059571;27;92134;-52
2023/09/20 03:55:33;;;;;;;3.80;3.10;;;25.10;52.30;;;;;;5060475;27;92990;-53
2023/09/20 03:58:03;;;;;;;6.90;3.30;;;25.10;51.70;;;;;;5060779;27;93308;-53
2023/09/20 04:00:32;;;;;;;5.67;3.13;;;25.10;51.70;;;;;;5060692;27;92244;-53
2023/09/20 04:03:01;;;;;;;7.40;3.17;;;25.10;51.70;;;;;;5061417;27;91347;-53
2023/09/20 04:05:31;;;;;;;6.33;2.90;;;25.10;51.70;;;;;;5059523;27;93298;-53
2023/09/20 04:08:16;;;;;;;5.37;2.77;;;25.10;51.70;;;;;;5060739;27;92931;-53
2023/09/20 04:10:45;;;;;;;5.97;3.07;;;25.00;51.70;;;;;;5060428;27;93004;-53
2023/09/20 04:13:15;;;;;;;4.17;2.87;;;25.10;51.70;;;;;;5054643;27;92506;-53
2023/09/20 04:15:44;;;;;;;6.53;2.83;;;25.00;51.70;;;;;;5050181;27;93128;-53
2023/09/20 04:18:13;;;;;;;3.87;2.67;;;25.00;51.70;;;;;;5061789;27;92382;-52
2023/09/20 04:20:41;;;;;;;6.53;3.20;;;25.00;51.70;;;;;;5062508;27;92077;-53
2023/09/20 04:23:10;;;;;;;5.07;3.30;;;25.00;51.70;;;;;;5062298;27;92128;-53
2023/09/20 04:25:39;;;;;;;5.80;2.87;;;25.00;51.70;;;;;;5062828;27;93205;-53
2023/09/20 04:28:08;;;;;;;5.37;2.87;;;25.00;51.70;;;;;;5062744;27;92959;-53
2023/09/20 04:30:38;;;;;;;5.70;2.83;;;25.00;51.70;;;;;;5058715;27;92093;-53
2023/09/20 04:33:10;;;;;;;3.73;2.90;;;25.00;52.40;;;;;;5059938;27;92151;-53
2023/09/20 04:35:38;;;;;;;7.77;2.80;;;25.00;51.70;;;;;;5058539;27;94212;-53
2023/09/20 04:38:06;;;;;;;4.30;2.80;;;25.00;51.70;;;;;;5059484;27;94769;-53
2023/09/20 04:40:34;;;;;;;5.37;3.00;;;25.00;51.70;;;;;;5059935;27;91864;-52
2023/09/20 04:43:02;;;;;;;6.17;2.23;;;25.00;51.70;;;;;;5059635;27;92356;-54
2023/09/20 04:45:31;;;;;;;8.40;2.70;;;25.00;51.70;;;;;;5059810;27;94157;-53
2023/09/20 04:48:00;;;;;;;4.70;2.10;;;25.00;51.70;;;;;;5071009;27;92880;-53
2023/09/20 04:50:28;;;;;;;2.20;1.60;;;25.00;51.70;;;;;;5076321;27;93207;-53
2023/09/20 04:52:56;;;;;;;6.07;2.60;;;25.00;51.70;;;;;;5060195;27;91734;-53
2023/09/20 04:55:25;;;;;;;3.40;2.50;;;25.00;51.70;;;;;;5069752;27;94038;-53
2023/09/20 04:57:53;;;;;;;2.53;2.30;;;25.00;52.40;;;;;;5079323;27;93890;-52
2023/09/20 05:00:26;;;;;;;3.60;2.23;;;25.00;51.70;;;;;;5079259;27;94065;-53
2023/09/20 05:02:54;;;;;;;2.53;2.03;;;25.00;51.70;;;;;;5078261;27;92133;-52
2023/09/20 05:05:25;;;;;;;2.67;1.93;;;25.00;51.70;;;;;;5079621;27;93173;-52
2023/09/20 05:07:54;;;;;;;4.67;2.07;;;25.00;51.70;;;;;;5079980;27;92723;-53
2023/09/20 05:10:22;;;;;;;4.50;2.40;;;25.00;51.70;;;;;;5079618;27;92283;-52
2023/09/20 05:12:50;;;;;;;4.53;2.73;;;25.00;51.70;;;;;;5076341;27;92157;-52
2023/09/20 05:15:18;;;;;;;4.27;2.20;;;25.00;51.80;;;;;;5068440;27;93101;-53
2023/09/20 05:17:49;;;;;;;5.70;2.07;;;25.00;51.70;;;;;;5058435;27;91429;-53
2023/09/20 05:20:17;;;;;;;4.23;2.50;;;25.00;51.80;;;;;;5058624;27;91854;-52
2023/09/20 05:22:47;;;;;;;2.13;1.93;;;25.00;51.80;;;;;;5059070;27;92042;-53
2023/09/20 05:25:15;;;;;;;5.53;2.17;;;25.00;52.40;;;;;;5057189;27;95146;-53
2023/09/20 05:27:44;;;;;;;4.40;2.23;;;25.00;51.80;;;;;;5058868;27;93918;-53
2023/09/20 05:30:14;;;;;;;2.87;1.80;;;25.00;51.80;;;;;;5059784;27;92000;-53
2023/09/20 05:32:43;;;;;;;4.20;1.97;;;25.00;51.90;;;;;;5058850;27;92070;-52
2023/09/20 05:35:11;;;;;;;5.17;2.17;;;25.00;51.80;;;;;;5057357;27;93095;-53
2023/09/20 05:37:39;;;;;;;2.13;1.57;;;24.90;51.80;;;;;;5059299;27;92925;-52
2023/09/20 05:40:13;;;;;;;7.57;2.00;;;25.00;51.90;;;;;;5058543;27;92036;-53
2023/09/20 05:42:43;;;;;;;2.97;1.77;;;24.90;51.80;;;;;;5059350;27;91280;-52
2023/09/20 05:45:11;;;;;;;4.13;1.60;;;24.90;51.80;;;;;;5070837;27;93101;-53
2023/09/20 05:47:39;;;;;;;3.93;1.60;;;24.90;51.80;;;;;;5074915;27;92862;-53
2023/09/20 05:50:10;;;;;;;3.27;1.90;;;25.00;51.90;;;;;;5073270;27;93083;-52
2023/09/20 05:52:40;;;;;;;2.67;1.70;;;24.90;51.80;;;;;;5061044;27;91999;-53
2023/09/20 05:55:11;;;;;;;1.33;1.20;;;24.90;51.80;;;;;;5058307;27;92049;-53
2023/09/20 05:57:39;;;;;;;2.23;1.40;;;24.90;51.80;;;;;;5058462;27;92770;-53
2023/09/20 06:00:15;;;;;;;1.87;1.17;;;24.90;51.80;;;;;;5069118;27;92227;-53
2023/09/20 06:02:44;;;;;;;1.03;0.93;;;24.90;51.80;;;;;;5075432;27;92183;-53
2023/09/20 06:05:14;;;;;;;2.20;1.53;;;24.90;51.80;;;;;;5073885;27;93119;-53
2023/09/20 06:07:44;;;;;;;2.73;1.50;;;24.90;51.80;;;;;;5072504;27;93849;-53
2023/09/20 06:10:15;;;;;;;4.37;1.13;;;24.90;51.80;;;;;;5058112;27;92040;-53
2023/09/20 06:12:43;;;;;;;1.93;1.30;;;24.90;51.80;;;;;;5058129;27;92186;-53
2023/09/20 06:15:13;;;;;;;1.30;0.97;;;24.90;51.80;;;;;;5057882;27;93189;-53
2023/09/20 06:17:42;;;;;;;1.90;0.93;;;24.90;51.80;;;;;;5076500;27;93688;-53
2023/09/20 06:20:12;;;;;;;2.23;1.50;;;24.90;51.80;;;;;;5060416;27;92306;-52
2023/09/20 06:22:41;;;;;;;4.27;1.80;;;24.90;51.80;;;;;;5066545;27;92252;-53
2023/09/20 06:25:10;;;;;;;5.07;1.20;;;24.90;51.80;;;;;;5072742;27;92875;-52
2023/09/20 06:27:40;;;;;;;2.57;1.10;;;25.00;51.90;;;;;;5075922;27;93820;-53
2023/09/20 06:30:13;;;;;;;1.20;1.10;;;24.90;52.50;;;;;;5078214;27;93776;-53
2023/09/20 06:32:42;;;;;;;1.17;0.80;;;24.90;51.80;;;;;;5078006;27;91021;-52
2023/09/20 06:35:10;;;;;;;1.80;1.17;;;24.90;51.80;;;;;;5078304;27;93087;-53
2023/09/20 06:37:39;;;;;;;1.30;1.00;;;24.90;52.50;;;;;;5072265;27;92690;-53
2023/09/20 06:40:21;;;;;;;3.10;1.30;;;24.90;51.80;;;;;;5064502;27;94107;-53
2023/09/20 06:42:51;;;;;;;1.50;1.20;;;24.90;51.80;;;;;;5048422;27;93536;-52
2023/09/20 06:45:19;;;;;;;0.93;0.80;;;24.90;51.80;;;;;;5057606;27;93081;-53
2023/09/20 06:47:47;;;;;;;1.60;1.03;;;25.00;51.90;;;;;;5064419;27;92724;-53
2023/09/20 06:50:15;;;;;;;4.30;1.40;;;24.90;51.80;;;;;;5075106;27;92039;-53
2023/09/20 06:52:45;;;;;;;3.57;1.10;;;24.90;51.80;;;;;;5056181;27;93008;-52
2023/09/20 06:55:13;;;;;;;2.53;1.20;;;24.90;51.80;;;;;;5066789;27;92182;-53
2023/09/20 06:57:42;;;;;;;2.20;1.10;;;24.90;51.80;;;;;;5074071;27;92703;-52
2023/09/20 07:00:21;;;;;;;0.97;0.77;;;24.90;51.80;;;;;;5057909;27;92100;-51
2023/09/20 07:02:55;;;;;;;1.77;1.00;;;24.90;51.80;;;;;;5060283;27;92376;-51
2023/09/20 07:05:27;;;;;;;2.70;1.10;;;24.90;51.90;;;;;;5076935;27;95054;-51
2023/09/20 07:07:58;;;;;;;1.77;1.00;;;24.90;51.80;;;;;;5074335;27;93651;-52
2023/09/20 07:10:28;;;;;;;2.63;0.73;;;24.90;51.90;;;;;;5076873;27;92061;-52
2023/09/20 07:12:56;;;;;;;1.30;0.73;;;24.90;51.90;;;;;;5064363;27;92055;-53
2023/09/20 07:15:28;;;;;;;5.17;0.80;;;24.90;51.90;;;;;;5036527;28;93322;-52
2023/09/20 07:18:11;;;;;;;0.60;0.60;;;24.90;51.90;;;;;;5044404;27;92910;-52
2023/09/20 07:20:40;;;;;;;1.07;0.73;;;24.90;51.90;;;;;;5065993;27;92394;-52
2023/09/20 07:23:10;;;;;;;2.10;0.77;;;24.90;51.90;;;;;;5078365;27;91343;-53
2023/09/20 07:25:38;;;;;;;1.10;0.67;;;24.90;51.90;;;;;;5071945;27;93779;-52
2023/09/20 07:28:07;;;;;;;1.17;0.97;;;24.90;51.90;;;;;;5076598;27;92894;-52
2023/09/20 07:30:40;;;;;;;1.00;0.50;;;24.90;51.90;;;;;;5077094;27;92977;-51
2023/09/20 07:33:11;;;;;;;0.90;0.83;;;24.90;52.60;;;;;;5076483;27;92166;-51
2023/09/20 07:35:47;;;;;;;2.10;1.00;;;24.90;51.90;;;;;;5059632;27;94116;-52
2023/09/20 07:38:25;;;;;;;2.20;0.70;;;24.90;52.00;;;;;;5056447;27;92787;-52
2023/09/20 07:41:02;;;;;;;1.00;0.70;;;24.90;52.00;;;;;;5046772;27;92134;-54
2023/09/20 07:43:30;;;;;;;2.57;0.80;;;24.90;52.00;;;;;;5057662;27;92155;-51
2023/09/20 07:46:06;;;;;;;0.77;0.50;;;24.90;52.00;;;;;;5058358;27;93268;-50
2023/09/20 07:48:37;;;;;;;0.50;0.50;;;24.90;52.00;;;;;;5069487;27;93765;-53
2023/09/20 07:51:10;;;;;;;1.20;0.70;;;24.90;52.00;;;;;;5075553;27;92092;-52
2023/09/20 07:53:41;;;;;;;0.90;0.70;;;24.90;52.60;;;;;;5069462;27;93638;-51
2023/09/20 07:56:11;;;;;;;0.97;0.60;;;24.90;52.60;;;;;;5075752;27;94278;-52
2023/09/20 07:58:40;;;;;;;0.90;0.70;;;24.90;52.00;;;;;;5070396;27;94010;-52
2023/09/20 08:01:18;;;;;;;0.73;0.70;;;24.90;52.00;;;;;;5067496;27;92140;-53
2023/09/20 08:03:50;;;;;;;0.60;0.60;;;24.90;52.00;;;;;;5078222;27;92364;-52
2023/09/20 08:06:20;;;;;;;1.50;0.60;;;24.90;52.00;;;;;;5077526;27;92958;-51
2023/09/20 08:08:48;;;;;;;1.90;0.70;;;24.90;52.00;;;;;;5078590;27;92103;-52
2023/09/20 08:11:17;;;;;;;0.60;0.50;;;24.90;52.70;;;;;;5080308;27;92041;-52
2023/09/20 08:13:50;;;;;;;2.47;0.70;;;24.90;52.00;;;;;;5070456;27;91415;-52
2023/09/20 08:16:19;;;;;;;1.70;0.50;;;24.90;52.00;;;;;;5060866;27;93235;-52
2023/09/20 08:19:11;;;;;;;0.90;0.60;;;24.90;52.00;;;;;;5060104;27;93991;-52
2023/09/20 08:21:39;;;;;;;0.50;0.50;;;24.90;52.00;;;;;;5052201;27;93223;-53
2023/09/20 09:00:21;;;;;;;2.90;1.07;;;24.80;52.10;;;;;;5038990;27;94108;-53
2023/09/20 09:02:52;;;;;;;0.90;0.50;;;24.90;52.10;;;;;;5039040;27;92697;-52
2023/09/20 09:05:24;;;;;;;0.60;0.40;;;24.80;52.10;;;;;;5038166;27;92082;-53
2023/09/20 09:07:52;;;;;;;0.60;0.40;;;24.80;52.00;;;;;;5044333;27;91404;-52
2023/09/20 09:10:20;;;;;;;0.37;0.37;;;24.90;52.10;;;;;;5039530;27;93245;-52
2023/09/20 09:12:49;;;;;;;1.00;0.90;;;24.90;52.10;;;;;;5047318;27;92975;-52
2023/09/20 09:15:17;;;;;;;0.93;0.43;;;24.90;52.10;;;;;;5058671;27;92988;-52
2023/09/20 09:17:46;;;;;;;1.40;0.60;;;25.10;52.20;;;;;;5043223;27;92127;-52
2023/09/20 09:20:15;;;;;;;0.87;0.50;;;24.90;52.10;;;;;;5038007;27;94097;-53
2023/09/20 09:22:45;;;;;;;1.20;0.70;;;24.90;52.10;;;;;;5033236;27;92618;-52
2023/09/20 09:25:14;;;;;;;0.90;0.60;;;24.90;52.10;;;;;;5038420;27;91919;-53
2023/09/20 09:27:43;;;;;;;3.23;1.00;;;24.90;52.10;;;;;;5035566;28;92273;-53
2023/09/20 09:30:12;;;;;;;0.47;0.40;;;24.90;52.10;;;;;;5021564;28;92102;-52
2023/09/20 09:32:41;;;;;;;1.00;0.53;;;24.90;52.10;;;;;;5029972;28;95839;-52
2023/09/20 09:35:12;;;;;;;0.40;0.40;;;24.90;52.10;;;;;;5039284;27;92137;-53
2023/09/20 09:37:43;;;;;;;0.40;0.40;;;24.90;52.00;;;;;;5049448;27;92040;-53
2023/09/20 09:40:14;;;;;;;2.17;0.50;;;24.90;52.00;;;;;;5058807;27;94089;-52
2023/09/20 09:42:43;;;;;;;0.60;0.60;;;24.90;52.00;;;;;;5039222;27;92926;-51
2023/09/20 09:45:12;;;;;;;0.87;0.50;;;24.90;52.00;;;;;;5038404;27;92080;-53
2023/09/20 09:47:41;;;;;;;1.10;0.80;;;24.90;52.00;;;;;;5042568;27;92122;-52
2023/09/20 09:50:10;;;;;;;1.03;0.63;;;24.90;52.00;;;;;;5042990;27;93974;-53
2023/09/20 09:52:39;;;;;;;1.10;0.60;;;24.90;52.00;;;;;;5037329;27;92490;-53
2023/09/20 09:55:08;;;;;;;0.60;0.57;;;24.90;52.00;;;;;;5038080;27;92643;-53
2023/09/20 09:57:38;;;;;;;0.60;0.60;;;24.90;52.10;;;;;;5037495;27;91364;-53
2023/09/20 10:00:10;;;;;;;0.77;0.60;;;24.90;52.00;;;;;;5037326;27;94951;-52
2023/09/20 10:02:39;;;;;;;0.67;0.60;;;25.00;52.10;;;;;;5037345;27;92756;-53
2023/09/20 10:05:10;;;;;;;0.60;0.50;;;25.00;52.10;;;;;;5036258;27;93070;-53
2023/09/20 10:07:40;;;;;;;1.13;0.83;;;25.00;52.10;;;;;;5037778;27;92101;-52
2023/09/20 10:10:12;;;;;;;0.90;0.60;;;25.00;52.10;;;;;;5037686;27;93116;-53
2023/09/20 10:12:44;;;;;;;0.40;0.40;;;25.00;52.10;;;;;;5037333;27;92829;-53
2023/09/20 10:15:13;;;;;;;1.70;0.60;;;25.00;52.20;;;;;;5033775;27;92121;-52
2023/09/20 10:17:46;;;;;;;1.70;0.83;;;25.00;52.20;;;;;;5018511;28;92121;-53
2023/09/20 10:20:16;;;;;;;0.70;0.70;;;25.00;52.20;;;;;;5028641;28;93168;-53
2023/09/20 10:22:45;;;;;;;1.73;0.50;;;25.00;52.20;;;;;;5037955;27;92633;-53
2023/09/20 10:25:29;;;;;;;0.63;0.63;;;25.00;52.20;;;;;;5037446;27;91983;-54
2023/09/20 10:27:59;;;;;;;1.10;0.50;;;25.00;52.20;;;;;;5036308;27;92343;-53
2023/09/20 10:30:28;;;;;;;0.70;0.57;;;25.00;52.20;;;;;;5036693;27;94213;-52
2023/09/20 10:32:58;;;;;;;2.50;0.60;;;24.90;52.10;;;;;;5040612;27;93860;-52
2023/09/20 10:35:29;;;;;;;0.40;0.40;;;24.90;52.10;;;;;;5057957;27;91899;-53
2023/09/20 10:38:25;;;;;;;0.93;0.70;;;25.00;52.20;;;;;;5046701;27;92095;-51
2023/09/20 10:41:00;;;;;;;0.30;0.30;;;25.00;52.30;;;;;;5037735;27;93002;-52
2023/09/20 10:43:48;;;;;;;0.40;0.40;;;25.00;52.20;;;;;;5036934;27;92961;-51
2023/09/20 10:46:22;;;;;;;1.30;0.50;;;24.90;52.20;;;;;;5037785;27;92079;-52
2023/09/20 10:48:51;;;;;;;0.93;0.77;;;25.00;52.20;;;;;;5050290;27;91375;-52
2023/09/20 10:51:42;;;;;;;1.47;0.77;;;25.00;52.20;;;;;;5056145;27;94064;-52
2023/09/20 10:54:22;;;;;;;0.70;0.70;;;25.00;52.20;;;;;;5057328;27;92899;-52
2023/09/20 10:57:07;;;;;;;2.20;0.60;;;25.00;52.60;;;;;;5052425;27;93475;-52
2023/09/20 10:59:37;;;;;;;0.77;0.40;;;25.00;52.20;;;;;;5056971;27;92115;-51
2023/09/20 11:02:10;;;;;;;0.40;0.40;;;25.10;52.20;;;;;;5056935;27;93071;-52
2023/09/20 11:04:38;;;;;;;1.47;0.70;;;25.10;52.90;;;;;;5057387;27;92703;-52
2023/09/20 11:07:06;;;;;;;2.13;0.97;;;25.20;52.20;;;;;;5056887;27;92145;-52
2023/09/20 11:09:34;;;;;;;2.20;0.90;;;25.10;52.10;;;;;;5057618;27;92083;-51
2023/09/20 11:12:11;;;;;;;1.00;0.90;;;25.10;52.20;;;;;;5057031;27;93074;-53
2023/09/20 11:14:41;;;;;;;1.47;0.60;;;25.20;52.20;;;;;;5056093;27;93781;-53
2023/09/20 11:17:13;;;;;;;1.33;0.90;;;25.20;52.20;;;;;;5056479;27;91867;-52
2023/09/20 11:19:42;;;;;;;2.17;0.60;;;25.20;52.30;;;;;;5056049;27;92171;-53
2023/09/20 11:22:10;;;;;;;1.43;0.67;;;25.20;52.30;;;;;;5055384;27;94069;-52
2023/09/20 11:24:40;;;;;;;1.50;0.60;;;25.20;52.30;;;;;;5056285;27;94926;-54
2023/09/20 11:27:08;;;;;;;0.47;0.47;;;25.10;52.30;;;;;;5057428;27;92210;-55
2023/09/20 11:29:38;;;;;;;0.63;0.60;;;25.20;52.30;;;;;;5056797;27;92070;-54
2023/09/20 11:32:10;;;;;;;1.17;0.80;;;25.20;52.30;;;;;;5054872;27;93369;-54
2023/09/20 11:34:47;;;;;;;1.57;0.63;;;25.20;52.30;;;;;;5054398;27;92745;-54
2023/09/20 11:37:17;;;;;;;0.67;0.67;;;25.20;52.40;;;;;;5057057;27;92035;-54
2023/09/20 11:39:46;;;;;;;0.70;0.60;;;25.20;52.30;;;;;;5060013;27;91362;-55
2023/09/20 11:42:24;;;;;;;1.73;0.80;;;25.20;52.30;;;;;;5059137;27;93278;-55
2023/09/20 11:44:57;;;;;;;1.03;0.50;;;25.30;52.40;;;;;;5060300;27;92777;-54
2023/09/20 11:47:42;;;;;;;1.60;1.10;;;25.30;52.30;;;;;;5060634;27;93011;-53
2023/09/20 11:50:13;;;;;;;0.97;0.60;;;25.30;52.30;;;;;;5060257;27;92181;-54
2023/09/20 11:52:45;;;;;;;0.93;0.67;;;25.30;52.40;;;;;;5041967;27;93163;-53
2023/09/20 11:55:13;;;;;;;0.97;0.70;;;25.30;52.40;;;;;;5039522;27;93804;-54
2023/09/20 11:57:42;;;;;;;1.07;0.80;;;25.30;52.40;;;;;;5040440;27;91989;-54
2023/09/20 12:00:16;;;;;;;2.50;0.83;;;25.30;53.00;;;;;;5039900;27;92537;-54
2023/09/20 12:02:46;;;;;;;1.00;0.77;;;25.30;52.40;;;;;;5039199;27;94175;-53
2023/09/20 12:05:17;;;;;;;2.07;0.90;;;25.30;52.40;;;;;;5040245;28;92943;-54
2023/09/20 12:07:53;;;;;;;0.83;0.70;;;25.30;52.30;;;;;;5039483;28;92062;-54
2023/09/20 12:10:21;;;;;;;2.43;0.80;;;25.30;52.40;;;;;;5054562;27;91953;-53
2023/09/20 12:12:51;;;;;;;1.23;0.93;;;25.30;52.30;;;;;;5059710;27;93044;-54
2023/09/20 12:15:19;;;;;;;0.87;0.77;;;25.30;52.30;;;;;;5059548;27;93710;-54
2023/09/20 12:17:50;;;;;;;3.67;0.90;;;25.30;52.30;;;;;;5060430;27;92096;-54
2023/09/20 12:20:18;;;;;;;1.03;0.90;;;25.30;53.00;;;;;;5043977;27;92164;-54
2023/09/20 12:22:46;;;;;;;2.07;0.93;;;25.30;52.30;;;;;;5038733;27;92053;-53
2023/09/20 12:25:16;;;;;;;2.20;1.00;;;25.30;52.30;;;;;;5039620;27;92739;-53
2023/09/20 12:27:45;;;;;;;2.30;1.07;;;25.30;52.30;;;;;;5042607;27;93315;-53
2023/09/20 12:30:14;;;;;;;1.63;1.43;;;25.40;52.40;;;;;;5039013;28;91280;-53
2023/09/20 12:32:42;;;;;;;2.17;1.60;;;25.30;52.30;;;;;;5039215;27;94065;-53
2023/09/20 12:35:13;;;;;;;1.50;1.20;;;25.40;52.40;;;;;;5038075;27;92766;-53
2023/09/20 12:37:41;;;;;;;1.43;1.33;;;25.30;52.30;;;;;;5037723;27;93046;-53
2023/09/20 12:40:10;;;;;;;2.57;1.77;;;25.40;52.50;;;;;;5038666;28;92111;-53
2023/09/20 12:42:39;;;;;;;3.00;2.10;;;25.30;52.30;;;;;;5039389;27;92016;-53
2023/09/20 12:45:07;;;;;;;1.47;1.37;;;25.40;52.40;;;;;;5039466;27;92695;-54
2023/09/20 12:47:39;;;;;;;2.97;1.70;;;25.40;52.40;;;;;;5022953;28;92063;-54
2023/09/20 12:50:12;;;;;;;2.03;1.90;;;25.40;52.40;;;;;;5036893;27;92048;-54
2023/09/20 12:52:43;;;;;;;1.97;1.57;;;25.40;52.40;;;;;;5044443;27;92024;-55
2023/09/20 12:55:13;;;;;;;1.70;1.60;;;25.40;52.40;;;;;;5065098;27;92776;-54
2023/09/20 12:57:42;;;;;;;4.83;2.47;;;25.40;53.00;;;;;;5065509;27;91911;-53
2023/09/20 13:00:16;;;;;;;2.33;1.77;;;25.50;52.40;;;;;;5039787;28;92096;-54
2023/09/20 13:03:01;;;;;;;2.83;1.83;;;25.50;52.40;;;;;;5038460;28;94293;-54
2023/09/20 13:05:30;;;;;;;2.70;1.70;;;25.50;52.30;;;;;;5038611;28;93908;-54
2023/09/20 13:08:00;;;;;;;3.30;1.97;;;25.40;52.30;;;;;;5040143;27;92218;-53
2023/09/20 13:10:28;;;;;;;1.83;1.50;;;25.50;53.00;;;;;;5054008;27;92029;-55
2023/09/20 13:12:56;;;;;;;3.40;1.30;;;25.50;52.30;;;;;;5059103;27;93096;-55
2023/09/20 13:15:24;;;;;;;4.80;2.27;;;25.50;52.30;;;;;;5058700;27;92767;-54
2023/09/20 13:17:52;;;;;;;1.90;1.57;;;25.50;52.30;;;;;;5059892;27;92019;-52
2023/09/20 13:20:20;;;;;;;2.23;1.57;;;25.60;52.40;;;;;;5059261;27;91329;-53
2023/09/20 13:22:52;;;;;;;1.97;1.40;;;25.60;52.30;;;;;;5059066;27;94369;-54
2023/09/20 13:25:22;;;;;;;1.10;1.00;;;25.60;52.30;;;;;;5058437;27;92904;-53
2023/09/20 13:27:50;;;;;;;1.60;1.10;;;25.60;52.30;;;;;;5058920;27;92966;-54
2023/09/20 13:30:18;;;;;;;1.00;1.00;;;25.60;52.30;;;;;;5058985;27;91951;-54
2023/09/20 13:32:46;;;;;;;1.30;1.10;;;25.60;52.30;;;;;;5059084;27;93056;-54
2023/09/20 13:35:16;;;;;;;1.50;1.40;;;25.70;52.30;;;;;;5058009;27;92715;-55
2023/09/20 13:37:45;;;;;;;1.47;1.20;;;25.70;52.30;;;;;;5059182;27;92105;-54
2023/09/20 13:40:15;;;;;;;3.17;1.30;;;25.70;52.30;;;;;;5058866;27;92096;-55